Time;durP1;ratioP1;P1;durP2;ratioP2;P2;SDS_P1;SDS_P2;PMS_P1;PMS_P2;Temp;Humidity;BMP_temperature;BMP_pressure;BME280_temperature;BME280_humidity;BME280_pressure;Samples;Min_cycle;Max_cycle;Signal;HPM_P1;HPM_P2
2021/12/26 00:02:07;;;;;;;;;;;-2.40;99.90;;;;;;4955054;28;20347;-80
2021/12/26 00:04:33;;;;;;;;;;;-2.50;99.90;;;;;;4953147;28;20010;-81
2021/12/26 00:06:59;;;;;;;;;;;-2.50;99.90;;;;;;4933602;29;19958;-80
2021/12/26 00:09:25;;;;;;;;;;;-2.50;99.90;;;;;;4938257;29;19957;-81
2021/12/26 00:11:50;;;;;;;;;;;-2.50;99.90;;;;;;4950292;28;19923;-80
2021/12/26 00:14:16;;;;;;;;;;;-2.50;99.90;;;;;;4966994;28;19919;-80
2021/12/26 00:16:42;;;;;;;;;;;-2.40;99.90;;;;;;4932572;29;20430;-80
2021/12/26 00:19:08;;;;;;;;;;;-2.40;99.90;;;;;;4933695;29;19919;-80
2021/12/26 00:21:33;;;;;;;;;;;-2.40;99.90;;;;;;4950431;28;19962;-80
2021/12/26 00:23:59;;;;;;;;;;;-2.40;99.90;;;;;;4943037;29;19925;-80
2021/12/26 00:26:25;;;;;;;;;;;-2.40;99.90;;;;;;4968059;28;20045;-80
2021/12/26 00:28:51;;;;;;;;;;;-2.40;99.90;;;;;;4935061;28;19965;-80
2021/12/26 00:31:16;;;;;;;;;;;-2.50;99.90;;;;;;4934023;29;19922;-80
2021/12/26 00:33:42;;;;;;;;;;;-2.50;99.90;;;;;;4933952;29;20377;-80
2021/12/26 00:36:08;;;;;;;;;;;-2.50;99.90;;;;;;4956849;28;19914;-81
2021/12/26 00:38:34;;;;;;;;;;;-2.50;99.90;;;;;;4972063;28;19929;-80
2021/12/26 00:40:59;;;;;;;;;;;-2.40;99.90;;;;;;4988733;28;19914;-80
2021/12/26 00:43:26;;;;;;;;;;;-2.40;99.90;;;;;;4972098;28;20394;-80
2021/12/26 00:45:52;;;;;;;;;;;-2.50;99.90;;;;;;4982901;28;19918;-80
2021/12/26 00:48:17;;;;;;;;;;;-2.50;99.90;;;;;;4953745;28;19934;-80
2021/12/26 00:50:43;;;;;;;;;;;-2.50;99.90;;;;;;4966658;28;20288;-80
2021/12/26 00:53:09;;;;;;;;;;;-2.50;99.90;;;;;;4938366;29;19974;-80
2021/12/26 00:55:35;;;;;;;;;;;-2.50;99.90;;;;;;4940092;28;19982;-80
2021/12/26 00:58:01;;;;;;;;;;;-2.50;99.90;;;;;;4968875;28;20506;-80
2021/12/26 01:00:29;;;;;;;;;;;-2.50;99.90;;;;;;4938971;28;19918;-80
2021/12/26 01:02:56;;;;;;;;;;;-2.50;99.90;;;;;;4936652;28;19929;-80
2021/12/26 01:05:23;;;;;;;;;;;-2.50;99.90;;;;;;4952336;29;19929;-80
2021/12/26 01:07:57;;;;;;;;;;;-2.60;99.90;;;;;;4955592;28;19915;-81
2021/12/26 01:10:24;;;;;;;;;;;-2.60;99.90;;;;;;4948692;28;19918;-80
2021/12/26 01:12:52;;;;;;;;;;;-2.50;99.90;;;;;;4953657;28;19922;-80
2021/12/26 01:15:19;;;;;;;;;;;-2.50;99.90;;;;;;4967371;28;19918;-80
2021/12/26 01:17:47;;;;;;;;;;;-2.60;99.90;;;;;;4948927;28;19933;-80
2021/12/26 01:20:36;;;;;;;;;;;-2.60;99.90;;;;;;4947725;28;19919;-79
2021/12/26 01:23:02;;;;;;;;;;;-2.60;99.90;;;;;;4950015;29;20422;-80
2021/12/26 01:25:28;;;;;;;;;;;-2.60;99.90;;;;;;4967728;28;19999;-80
2021/12/26 01:27:53;;;;;;;;;;;-2.50;99.90;;;;;;4968274;28;19922;-79
2021/12/26 01:30:20;;;;;;;;;;;-2.50;99.90;;;;;;4967783;28;19925;-80
2021/12/26 01:32:50;;;;;;;;;;;-2.60;99.90;;;;;;4952525;28;20018;-80
2021/12/26 01:35:34;;;;;;;;;;;-2.60;99.90;;;;;;4937668;29;19989;-80
2021/12/26 01:38:23;;;;;;;;;;;-2.60;99.90;;;;;;4950593;28;20399;-80
2021/12/26 01:40:51;;;;;;;;;;;-2.60;99.90;;;;;;4934526;29;19915;-80
2021/12/26 01:43:41;;;;;;;;;;;-2.70;99.90;;;;;;4936587;28;19969;-80
2021/12/26 01:46:17;;;;;;;;;;;-2.60;99.90;;;;;;4967915;28;19914;-80
2021/12/26 01:48:43;;;;;;;;;;;-2.60;99.90;;;;;;4961368;28;19925;-80
2021/12/26 01:51:09;;;;;;;;;;;-2.60;99.90;;;;;;4933282;28;19981;-79
2021/12/26 01:53:37;;;;;;;;;;;-2.60;99.90;;;;;;4948825;29;19965;-80
2021/12/26 01:56:09;;;;;;;;;;;-2.60;99.90;;;;;;4958595;28;19921;-80
2021/12/26 01:58:36;;;;;;;;;;;-2.60;99.90;;;;;;4966205;28;20056;-79
2021/12/26 02:01:11;;;;;;;;;;;-2.50;99.90;;;;;;4946321;28;19966;-79
2021/12/26 02:03:38;;;;;;;;;;;-2.50;99.90;;;;;;4939920;29;19975;-80
2021/12/26 02:06:04;;;;;;;;;;;-2.60;99.90;;;;;;4967506;28;20588;-80
2021/12/26 02:08:38;;;;;;;;;;;-2.60;99.90;;;;;;4955646;28;19962;-80
2021/12/26 02:11:05;;;;;;;;;;;-2.60;99.90;;;;;;4918765;29;20454;-81
2021/12/26 02:13:33;;;;;;;;;;;-2.60;99.90;;;;;;4949881;28;19918;-79
2021/12/26 02:16:00;;;;;;;;;;;-2.60;99.90;;;;;;4933691;28;19923;-79
2021/12/26 02:18:25;;;;;;;;;;;-2.60;99.90;;;;;;4934434;29;19919;-80
2021/12/26 02:23:56;;;;;;;;;;;-2.60;99.90;;;;;;4968000;28;19914;-79
2021/12/26 02:29:06;;;;;;;;;;;-2.60;99.90;;;;;;4933338;29;19918;-79
2021/12/26 02:31:33;;;;;;;;;;;-2.60;99.90;;;;;;4969779;28;19922;-80
2021/12/26 02:33:58;;;;;;;;;;;-2.60;99.90;;;;;;4938917;29;20074;-79
2021/12/26 02:36:24;;;;;;;;;;;-2.50;99.90;;;;;;4946248;29;19919;-79
2021/12/26 02:38:51;;;;;;;;;;;-2.50;99.90;;;;;;4963170;28;19915;-79
2021/12/26 02:41:17;;;;;;;;;;;-2.50;99.90;;;;;;4936190;28;19926;-80
2021/12/26 02:43:42;;;;;;;;;;;-2.60;99.90;;;;;;4936332;28;19918;-80
2021/12/26 02:46:08;;;;;;;;;;;-2.50;99.90;;;;;;4935679;28;19915;-79
2021/12/26 02:48:37;;;;;;;;;;;-2.50;99.90;;;;;;4935983;28;19918;-80
2021/12/26 02:51:03;;;;;;;;;;;-2.50;99.90;;;;;;4936010;28;19965;-79
2021/12/26 02:53:29;;;;;;;;;;;-2.50;99.90;;;;;;4936120;28;20009;-79
2021/12/26 02:55:56;;;;;;;;;;;-2.50;99.90;;;;;;4963750;28;19950;-79
2021/12/26 02:58:22;;;;;;;;;;;-2.50;99.90;;;;;;4954753;28;19941;-80
2021/12/26 03:00:51;;;;;;;;;;;-2.50;99.90;;;;;;4955152;28;19922;-79
2021/12/26 03:03:17;;;;;;;;;;;-2.50;99.90;;;;;;4971194;28;19937;-80
2021/12/26 03:05:46;;;;;;;;;;;-2.50;99.90;;;;;;4954646;29;20384;-80
2021/12/26 03:08:16;;;;;;;;;;;-2.50;99.90;;;;;;4954853;28;19918;-79
2021/12/26 03:10:42;;;;;;;;;;;-2.50;99.90;;;;;;4938824;29;20065;-79
2021/12/26 03:13:09;;;;;;;;;;;-2.50;99.90;;;;;;4938721;29;19911;-79
2021/12/26 03:15:36;;;;;;;;;;;-2.50;99.90;;;;;;4954431;28;19922;-79
2021/12/26 03:18:02;;;;;;;;;;;-2.50;99.90;;;;;;4937766;28;19921;-79
2021/12/26 03:20:34;;;;;;;;;;;-2.60;99.90;;;;;;4954957;28;20001;-79
2021/12/26 03:23:00;;;;;;;;;;;-2.60;99.90;;;;;;4935947;28;20508;-79
2021/12/26 03:25:27;;;;;;;;;;;-2.50;99.90;;;;;;4938146;28;19965;-79
2021/12/26 03:27:53;;;;;;;;;;;-2.60;99.90;;;;;;4946153;28;19919;-79
2021/12/26 03:30:21;;;;;;;;;;;-2.50;99.90;;;;;;4954356;28;19926;-80
2021/12/26 03:32:50;;;;;;;;;;;-2.50;99.90;;;;;;4954768;28;19972;-79
2021/12/26 03:35:16;;;;;;;;;;;-2.40;99.90;;;;;;4956096;28;19950;-79
2021/12/26 03:37:41;;;;;;;;;;;-2.40;99.90;;;;;;4950950;28;20356;-80
2021/12/26 03:40:27;;;;;;;;;;;-2.40;99.90;;;;;;4948623;29;19919;-79
2021/12/26 03:42:53;;;;;;;;;;;-2.40;99.90;;;;;;4959438;28;19919;-79
2021/12/26 03:45:19;;;;;;;;;;;-2.40;99.90;;;;;;4970231;28;19965;-78
2021/12/26 03:47:49;;;;;;;;;;;-2.40;99.90;;;;;;4954541;28;19923;-79
2021/12/26 03:50:19;;;;;;;;;;;-2.40;99.90;;;;;;4970405;28;19914;-79
2021/12/26 03:52:51;;;;;;;;;;;-2.40;99.90;;;;;;4970777;28;19921;-78
2021/12/26 03:55:18;;;;;;;;;;;-2.40;99.90;;;;;;4970457;28;19925;-79
2021/12/26 03:57:44;;;;;;;;;;;-2.40;99.90;;;;;;4970029;28;19963;-79
2021/12/26 04:00:10;;;;;;;;;;;-2.30;99.90;;;;;;4937861;29;19922;-79
2021/12/26 04:02:41;;;;;;;;;;;-2.30;99.90;;;;;;4962222;28;19921;-80
2021/12/26 04:05:07;;;;;;;;;;;-2.30;99.90;;;;;;4973719;28;19925;-81
2021/12/26 04:07:33;;;;;;;;;;;-2.30;99.90;;;;;;4979057;28;20325;-80
2021/12/26 04:09:59;;;;;;;;;;;-2.40;99.90;;;;;;4946936;29;19922;-81
2021/12/26 04:12:24;;;;;;;;;;;-2.30;99.90;;;;;;4950210;29;19925;-80
2021/12/26 04:14:50;;;;;;;;;;;-2.30;99.90;;;;;;4963777;28;20053;-80
2021/12/26 04:17:16;;;;;;;;;;;-2.20;99.90;;;;;;4938302;28;19925;-81
2021/12/26 04:19:42;;;;;;;;;;;-2.20;99.90;;;;;;4948872;29;19919;-80
2021/12/26 04:22:08;;;;;;;;;;;-2.10;99.90;;;;;;4954081;28;20016;-80
2021/12/26 04:24:34;;;;;;;;;;;-2.20;99.90;;;;;;4971078;28;19914;-80
2021/12/26 04:27:00;;;;;;;;;;;-2.20;99.90;;;;;;4969808;28;19960;-80
2021/12/26 04:29:25;;;;;;;;;;;-2.10;99.90;;;;;;4947916;29;20362;-80
2021/12/26 04:31:51;;;;;;;;;;;-2.10;99.90;;;;;;4950008;29;19994;-80
2021/12/26 04:34:18;;;;;;;;;;;-2.10;99.90;;;;;;4955686;29;19973;-80
2021/12/26 04:36:47;;;;;;;;;;;-2.10;99.90;;;;;;4970813;28;19915;-80
2021/12/26 04:39:13;;;;;;;;;;;-2.20;99.90;;;;;;4970682;28;19922;-80
2021/12/26 04:41:39;;;;;;;;;;;-2.10;99.90;;;;;;4971148;28;19911;-80
2021/12/26 04:44:26;;;;;;;;;;;-2.10;99.90;;;;;;4967669;28;20002;-80
2021/12/26 04:47:11;;;;;;;;;;;-2.10;99.90;;;;;;4954772;28;19914;-80
2021/12/26 04:49:37;;;;;;;;;;;-2.10;99.90;;;;;;4974829;28;20281;-81
2021/12/26 04:52:03;;;;;;;;;;;-2.10;99.90;;;;;;4979806;28;19918;-80
2021/12/26 04:54:32;;;;;;;;;;;-2.10;99.90;;;;;;4954728;28;19927;-80
2021/12/26 04:56:57;;;;;;;;;;;-2.10;99.90;;;;;;4945022;28;19915;-81
2021/12/26 04:59:23;;;;;;;;;;;-2.10;99.90;;;;;;4967174;28;19968;-81
2021/12/26 05:01:49;;;;;;;;;;;-2.10;99.90;;;;;;4952767;28;20024;-81
2021/12/26 05:04:14;;;;;;;;;;;-2.10;99.90;;;;;;4975000;28;19914;-82
2021/12/26 05:06:40;;;;;;;;;;;-2.00;99.90;;;;;;4951448;28;19918;-81
2021/12/26 05:09:06;;;;;;;;;;;-2.00;99.90;;;;;;4950838;29;19918;-80
2021/12/26 05:11:36;;;;;;;;;;;-1.90;99.90;;;;;;4933656;29;19918;-81
2021/12/26 05:14:02;;;;;;;;;;;-1.90;99.90;;;;;;4955937;28;19972;-81
2021/12/26 05:16:28;;;;;;;;;;;-1.80;99.90;;;;;;4935162;29;20396;-81
2021/12/26 05:18:53;;;;;;;;;;;-1.90;99.90;;;;;;4950340;28;20006;-82
2021/12/26 05:21:20;;;;;;;;;;;-1.90;99.90;;;;;;4972436;28;20408;-80
2021/12/26 05:23:46;;;;;;;;;;;-1.90;99.90;;;;;;4957466;28;20436;-80
2021/12/26 05:26:12;;;;;;;;;;;-1.90;99.90;;;;;;4984288;28;20288;-81
2021/12/26 05:28:38;;;;;;;;;;;-1.90;99.90;;;;;;4972836;28;19940;-81
2021/12/26 05:31:05;;;;;;;;;;;-1.90;99.90;;;;;;4954402;28;19926;-80
2021/12/26 05:33:41;;;;;;;;;;;-1.90;99.90;;;;;;4959211;28;19965;-81
2021/12/26 05:36:07;;;;;;;;;;;-1.90;99.90;;;;;;4953130;28;19918;-81
2021/12/26 05:38:35;;;;;;;;;;;-1.80;99.90;;;;;;4952744;28;19919;-81
2021/12/26 05:41:01;;;;;;;;;;;-1.90;99.90;;;;;;4956490;28;19922;-81
2021/12/26 05:43:28;;;;;;;;;;;-1.80;99.90;;;;;;4949923;28;19925;-80
2021/12/26 05:45:55;;;;;;;;;;;-1.80;99.90;;;;;;4933087;29;19925;-80
2021/12/26 05:48:23;;;;;;;;;;;-1.80;99.90;;;;;;4969638;28;19926;-80
2021/12/26 05:50:49;;;;;;;;;;;-1.80;99.90;;;;;;4962718;28;20285;-80
2021/12/26 05:53:43;;;;;;;;;;;-1.90;99.90;;;;;;4976474;28;19918;-82
2021/12/26 05:56:10;;;;;;;;;;;-1.90;99.90;;;;;;4968221;28;19953;-81
2021/12/26 05:58:35;;;;;;;;;;;-1.90;99.90;;;;;;4952205;28;19910;-80
2021/12/26 06:01:02;;;;;;;;;;;-1.90;99.90;;;;;;4968223;28;19932;-79
2021/12/26 06:03:28;;;;;;;;;;;-1.90;99.90;;;;;;4958147;28;19914;-80
2021/12/26 06:05:54;;;;;;;;;;;-1.90;99.90;;;;;;4955302;28;20446;-80
2021/12/26 06:08:25;;;;;;;;;;;-1.90;99.90;;;;;;4947501;28;19919;-79
2021/12/26 06:10:52;;;;;;;;;;;-2.00;99.90;;;;;;4952953;28;19918;-82
2021/12/26 06:13:18;;;;;;;;;;;-2.00;99.90;;;;;;4953154;28;19922;-81
2021/12/26 06:15:43;;;;;;;;;;;-2.00;99.90;;;;;;4956006;28;19925;-81
2021/12/26 06:18:09;;;;;;;;;;;-1.90;99.90;;;;;;4977326;28;20005;-81
2021/12/26 06:20:57;;;;;;;;;;;-1.90;99.90;;;;;;4950321;29;19915;-81
2021/12/26 06:23:55;;;;;;;;;;;-1.90;99.90;;;;;;4964753;28;19919;-81
2021/12/26 06:26:30;;;;;;;;;;;-1.90;99.90;;;;;;4970362;28;20009;-80
2021/12/26 06:28:56;;;;;;;;;;;-1.90;99.90;;;;;;4955399;29;19914;-80
2021/12/26 06:31:41;;;;;;;;;;;-1.80;99.90;;;;;;4967003;28;19953;-80
2021/12/26 06:34:25;;;;;;;;;;;-1.80;99.90;;;;;;4965380;28;19925;-81
2021/12/26 06:37:09;;;;;;;;;;;-1.80;99.90;;;;;;4957578;28;20545;-80
2021/12/26 06:39:53;;;;;;;;;;;-1.80;99.90;;;;;;4969364;28;19929;-81
2021/12/26 06:42:41;;;;;;;;;;;-1.80;99.90;;;;;;4969508;28;19925;-80
2021/12/26 06:45:43;;;;;;;;;;;-1.90;99.90;;;;;;4956852;28;20424;-80
2021/12/26 06:48:27;;;;;;;;;;;-1.90;99.90;;;;;;4962029;28;20391;-81
2021/12/26 06:50:54;;;;;;;;;;;-1.90;99.90;;;;;;4965430;28;19930;-80
2021/12/26 06:53:20;;;;;;;;;;;-1.90;99.90;;;;;;4975208;28;19922;-81
2021/12/26 06:55:46;;;;;;;;;;;-1.90;99.90;;;;;;4961535;28;20261;-80
2021/12/26 06:58:12;;;;;;;;;;;-1.90;99.90;;;;;;4966621;28;19970;-81
2021/12/26 07:00:38;;;;;;;;;;;-1.90;99.90;;;;;;4961636;28;19915;-81
2021/12/26 07:03:04;;;;;;;;;;;-1.90;99.90;;;;;;4970852;28;19918;-82
2021/12/26 07:05:29;;;;;;;;;;;-1.80;99.90;;;;;;4938657;28;19997;-82
2021/12/26 07:08:01;;;;;;;;;;;-1.90;99.90;;;;;;4939259;28;19914;-81
2021/12/26 07:10:27;;;;;;;;;;;-1.80;99.90;;;;;;4964956;28;19919;-82
2021/12/26 07:12:53;;;;;;;;;;;-1.80;99.90;;;;;;4936484;29;20352;-81
2021/12/26 07:15:27;;;;;;;;;;;-1.90;99.90;;;;;;4962092;28;19930;-82
2021/12/26 07:17:57;;;;;;;;;;;-1.90;99.90;;;;;;4939030;29;19969;-81
2021/12/26 07:20:24;;;;;;;;;;;-1.90;99.90;;;;;;4938308;29;19929;-82
2021/12/26 07:23:12;;;;;;;;;;;-1.90;99.90;;;;;;4947173;28;19921;-81
2021/12/26 07:25:41;;;;;;;;;;;-1.90;99.90;;;;;;4974045;28;19970;-81
2021/12/26 07:28:07;;;;;;;;;;;-1.90;99.90;;;;;;4938074;29;19919;-81
2021/12/26 07:30:42;;;;;;;;;;;-1.90;99.90;;;;;;4962564;28;19925;-81
2021/12/26 07:33:07;;;;;;;;;;;-1.90;99.90;;;;;;4943154;29;20317;-80
2021/12/26 07:35:33;;;;;;;;;;;-1.90;99.90;;;;;;4951469;28;19929;-81
2021/12/26 07:38:19;;;;;;;;;;;-1.90;99.90;;;;;;4948325;28;19918;-81
2021/12/26 07:40:46;;;;;;;;;;;-1.90;99.90;;;;;;4938865;29;19915;-82
2021/12/26 07:43:21;;;;;;;;;;;-1.90;99.90;;;;;;4964283;28;19910;-82
2021/12/26 07:46:05;;;;;;;;;;;-1.90;99.90;;;;;;4971142;28;20564;-82
2021/12/26 07:48:31;;;;;;;;;;;-1.90;99.90;;;;;;4951091;28;19914;-81
2021/12/26 07:50:57;;;;;;;;;;;-1.80;99.90;;;;;;4957506;29;19911;-81
2021/12/26 07:53:41;;;;;;;;;;;-1.80;99.90;;;;;;4956613;29;19945;-81
2021/12/26 07:56:25;;;;;;;;;;;-1.80;99.90;;;;;;4969466;28;19933;-81
2021/12/26 07:59:09;;;;;;;;;;;-1.80;99.90;;;;;;4967202;28;19926;-81
2021/12/26 08:01:53;;;;;;;;;;;-1.80;99.90;;;;;;4970940;28;19933;-82
2021/12/26 08:04:38;;;;;;;;;;;-1.80;99.90;;;;;;4972892;28;19922;-81
2021/12/26 08:07:32;;;;;;;;;;;-1.80;99.90;;;;;;4980409;28;19925;-81
2021/12/26 08:09:58;;;;;;;;;;;-1.90;99.90;;;;;;4945369;28;19918;-81
2021/12/26 08:12:23;;;;;;;;;;;-1.80;99.90;;;;;;4956284;28;20398;-82
2021/12/26 08:14:49;;;;;;;;;;;-1.80;99.90;;;;;;4972971;28;19918;-83
2021/12/26 08:17:14;;;;;;;;;;;-1.80;99.90;;;;;;4988738;28;19925;-81
2021/12/26 08:19:40;;;;;;;;;;;-1.80;99.90;;;;;;4985938;28;19926;-81
2021/12/26 08:22:06;;;;;;;;;;;-1.80;99.90;;;;;;4965371;28;19998;-82
2021/12/26 08:24:31;;;;;;;;;;;-1.80;99.90;;;;;;4943699;29;20357;-84
2021/12/26 08:26:57;;;;;;;;;;;-1.90;99.90;;;;;;4945930;28;19922;-83
2021/12/26 08:29:23;;;;;;;;;;;-1.80;99.90;;;;;;4955182;28;20468;-83
2021/12/26 08:31:50;;;;;;;;;;;-1.80;99.90;;;;;;4950091;29;19915;-81
2021/12/26 08:34:20;;;;;;;;;;;-1.80;99.90;;;;;;4964005;28;20415;-80
2021/12/26 08:36:48;;;;;;;;;;;-1.80;99.90;;;;;;4961214;28;19918;-81
2021/12/26 08:39:13;;;;;;;;;;;-1.80;99.90;;;;;;4959923;28;19925;-81
2021/12/26 08:41:40;;;;;;;;;;;-1.80;99.90;;;;;;4978002;28;19922;-83
2021/12/26 08:44:05;;;;;;;;;;;-1.80;99.90;;;;;;4973852;28;19934;-81
2021/12/26 08:46:33;;;;;;;;;;;-1.80;99.90;;;;;;4978161;28;19929;-81
2021/12/26 08:48:59;;;;;;;;;;;-1.70;99.90;;;;;;4975195;28;19922;-82
2021/12/26 08:51:24;;;;;;;;;;;-1.80;99.90;;;;;;4979277;28;19914;-82
2021/12/26 08:53:50;;;;;;;;;;;-1.80;99.90;;;;;;4954031;28;20391;-81
2021/12/26 08:56:15;;;;;;;;;;;-1.80;99.90;;;;;;4973355;28;19926;-82
2021/12/26 08:58:41;;;;;;;;;;;-1.70;99.90;;;;;;4942705;28;20567;-82
2021/12/26 09:01:07;;;;;;;;;;;-1.80;99.90;;;;;;4953504;28;19962;-81
2021/12/26 09:03:37;;;;;;;;;;;-1.70;99.90;;;;;;4972888;28;20367;-82
2021/12/26 09:06:03;;;;;;;;;;;-1.70;99.90;;;;;;4967507;28;19930;-81
2021/12/26 09:08:29;;;;;;;;;;;-1.70;99.90;;;;;;4960089;28;19969;-82
2021/12/26 09:10:55;;;;;;;;;;;-1.70;99.90;;;;;;4981118;28;19945;-80
2021/12/26 09:13:20;;;;;;;;;;;-1.70;99.90;;;;;;4975759;28;20307;-80
2021/12/26 09:15:46;;;;;;;;;;;-1.80;99.90;;;;;;4971039;28;19918;-81
2021/12/26 09:18:12;;;;;;;;;;;-1.70;99.90;;;;;;4961378;28;20443;-81
2021/12/26 09:20:37;;;;;;;;;;;-1.70;99.90;;;;;;4958484;28;19965;-81
2021/12/26 09:23:03;;;;;;;;;;;-1.70;99.90;;;;;;4969225;28;19922;-81
2021/12/26 09:25:29;;;;;;;;;;;-1.70;99.90;;;;;;4935508;29;19933;-80
2021/12/26 09:27:54;;;;;;;;;;;-1.70;99.90;;;;;;4958057;28;19914;-81
2021/12/26 09:30:20;;;;;;;;;;;-1.70;99.90;;;;;;4980704;28;19918;-81
2021/12/26 09:32:46;;;;;;;;;;;-1.70;99.90;;;;;;4960479;28;19921;-82
2021/12/26 09:35:11;;;;;;;;;;;-1.70;99.90;;;;;;4958508;28;20376;-82
2021/12/26 09:37:37;;;;;;;;;;;-1.60;99.90;;;;;;4955732;28;20352;-81
2021/12/26 09:40:03;;;;;;;;;;;-1.60;99.90;;;;;;4942714;29;20029;-82
2021/12/26 09:42:29;;;;;;;;;;;-1.60;99.90;;;;;;4951146;28;20002;-80
2021/12/26 09:44:55;;;;;;;;;;;-1.60;99.90;;;;;;4981294;28;20428;-82
2021/12/26 09:47:20;;;;;;;;;;;-1.60;99.90;;;;;;4979609;28;20381;-81
2021/12/26 09:49:46;;;;;;;;;;;-1.50;99.90;;;;;;4954708;28;19960;-82
2021/12/26 09:52:12;;;;;;;;;;;-1.50;99.90;;;;;;4962115;28;19930;-80
2021/12/26 09:54:38;;;;;;;;;;;-1.50;99.90;;;;;;4951140;29;19923;-81
2021/12/26 09:57:05;;;;;;;;;;;-1.50;99.90;;;;;;4958932;28;19918;-82
2021/12/26 09:59:31;;;;;;;;;;;-1.50;99.90;;;;;;4953776;28;19914;-82
2021/12/26 10:02:00;;;;;;;;;;;-1.50;99.90;;;;;;4962961;28;19922;-81
2021/12/26 10:04:27;;;;;;;;;;;-1.50;99.90;;;;;;4976816;28;20001;-82
2021/12/26 10:07:00;;;;;;;;;;;-1.60;99.90;;;;;;4960096;28;19944;-81
2021/12/26 10:09:26;;;;;;;;;;;-1.50;99.90;;;;;;4941888;28;20473;-82
2021/12/26 10:11:54;;;;;;;;;;;-1.50;99.90;;;;;;4941620;28;20324;-81
2021/12/26 10:14:28;;;;;;;;;;;-1.50;99.90;;;;;;4982849;28;19940;-81
2021/12/26 10:16:55;;;;;;;;;;;-1.50;99.90;;;;;;4964909;28;19915;-81
2021/12/26 10:19:21;;;;;;;;;;;-1.50;99.90;;;;;;4946489;28;19966;-81
2021/12/26 10:21:49;;;;;;;;;;;-1.50;99.90;;;;;;4955280;28;20336;-80
2021/12/26 10:24:18;;;;;;;;;;;-1.50;99.90;;;;;;4975313;28;19914;-80
2021/12/26 10:26:46;;;;;;;;;;;-1.40;99.90;;;;;;4962395;28;19933;-80
2021/12/26 10:29:27;;;;;;;;;;;-1.40;99.90;;;;;;4971693;28;19919;-79
2021/12/26 10:31:52;;;;;;;;;;;-1.40;99.90;;;;;;4964395;28;20001;-80
2021/12/26 10:34:26;;;;;;;;;;;-1.50;99.90;;;;;;4969070;28;19957;-80
2021/12/26 10:36:53;;;;;;;;;;;-1.40;99.90;;;;;;4951263;28;19918;-79
2021/12/26 10:39:20;;;;;;;;;;;-1.40;99.90;;;;;;4950771;28;19925;-80
2021/12/26 10:41:48;;;;;;;;;;;-1.40;99.90;;;;;;4961575;28;20321;-79
2021/12/26 10:44:19;;;;;;;;;;;-1.40;99.90;;;;;;4958340;28;19918;-80
2021/12/26 10:46:46;;;;;;;;;;;-1.40;99.90;;;;;;4977234;28;20453;-80
2021/12/26 10:49:22;;;;;;;;;;;-1.40;99.90;;;;;;4968961;28;20283;-81
2021/12/26 10:51:48;;;;;;;;;;;-1.40;99.90;;;;;;4966762;28;19937;-81
2021/12/26 10:54:15;;;;;;;;;;;-1.40;99.90;;;;;;4986984;28;20388;-80
2021/12/26 10:56:40;;;;;;;;;;;-1.40;99.90;;;;;;4970939;28;19914;-80
2021/12/26 10:59:19;;;;;;;;;;;-1.40;99.90;;;;;;4978851;28;20340;-80
2021/12/26 11:01:45;;;;;;;;;;;-1.40;99.90;;;;;;4979582;28;19915;-80
2021/12/26 11:04:11;;;;;;;;;;;-1.30;99.90;;;;;;4978438;28;19966;-80
2021/12/26 11:06:57;;;;;;;;;;;-1.30;99.90;;;;;;4962308;28;19947;-81
2021/12/26 11:09:23;;;;;;;;;;;-1.30;99.90;;;;;;4966786;28;19914;-81
2021/12/26 11:11:59;;;;;;;;;;;-1.30;99.90;;;;;;4979749;28;20428;-80
2021/12/26 11:14:25;;;;;;;;;;;-1.20;99.90;;;;;;4966014;28;19949;-80
2021/12/26 11:16:50;;;;;;;;;;;-1.20;99.90;;;;;;4970190;28;20337;-80
2021/12/26 11:19:16;;;;;;;;;;;-1.20;99.90;;;;;;4975459;28;20403;-80
2021/12/26 11:21:42;;;;;;;;;;;-1.20;99.90;;;;;;4951781;28;19915;-81
2021/12/26 11:24:08;;;;;;;;;;;-1.20;99.90;;;;;;4966038;28;19914;-81
2021/12/26 11:26:33;;;;;;;;;;;-1.10;99.90;;;;;;4960317;28;19922;-80
2021/12/26 11:28:59;;;;;;;;;;;-1.00;99.90;;;;;;4962802;28;19915;-80
2021/12/26 11:31:29;;;;;;;;;;;-1.00;99.90;;;;;;4957381;28;19969;-79
2021/12/26 11:33:59;;;;;;;;;;;-1.00;99.90;;;;;;4961953;28;20013;-80
2021/12/26 11:36:26;;;;;;;;;;;-1.00;99.90;;;;;;4967332;28;19942;-80
2021/12/26 11:39:08;;;;;;;;;;;-1.00;99.90;;;;;;4952124;28;19922;-79
2021/12/26 11:42:05;;;;;;;;;;;-1.00;99.90;;;;;;4983820;28;19934;-81
2021/12/26 11:44:51;;;;;;;;;;;-0.90;99.90;;;;;;4982474;28;19942;-80
2021/12/26 11:48:00;;;;;;;;;;;-0.90;99.90;;;;;;4966260;28;20049;-82
2021/12/26 11:51:04;;;;;;;;;;;-0.90;99.90;;;;;;4970587;28;19966;-81
2021/12/26 11:53:51;;;;;;;;;;;-0.80;99.90;;;;;;4953018;28;20033;-80
2021/12/26 11:56:52;;;;;;;;;;;-0.80;99.90;;;;;;4965461;28;19918;-80
2021/12/26 11:59:38;;;;;;;;;;;-0.90;99.90;;;;;;4960026;28;20443;-81
2021/12/26 12:02:04;;;;;;;;;;;-0.90;99.90;;;;;;4971208;28;19958;-80
2021/12/26 12:04:30;;;;;;;;;;;-1.00;99.90;;;;;;4961188;28;20355;-81
2021/12/26 12:07:02;;;;;;;;;;;-0.90;99.90;;;;;;4934659;29;19922;-80
2021/12/26 12:09:38;;;;;;;;;;;-0.90;99.90;;;;;;4958005;28;20411;-80
2021/12/26 12:12:08;;;;;;;;;;;-0.90;99.90;;;;;;4966620;28;19945;-80
2021/12/26 12:14:49;;;;;;;;;;;-1.00;99.90;;;;;;4957516;28;19929;-80
2021/12/26 12:17:15;;;;;;;;;;;-1.00;99.90;;;;;;4968035;28;19918;-79
2021/12/26 12:20:00;;;;;;;;;;;-1.00;99.90;;;;;;4941217;28;19910;-81
2021/12/26 12:22:25;;;;;;;;;;;-0.90;99.90;;;;;;4954106;29;19915;-80
2021/12/26 12:24:52;;;;;;;;;;;-0.90;99.90;;;;;;4975602;28;19919;-80
2021/12/26 12:27:20;;;;;;;;;;;-0.90;99.90;;;;;;4956549;28;19922;-80
2021/12/26 12:29:51;;;;;;;;;;;-0.90;99.90;;;;;;4962471;28;19918;-80
2021/12/26 12:32:19;;;;;;;;;;;-0.90;99.90;;;;;;4958912;28;19914;-80
2021/12/26 12:34:46;;;;;;;;;;;-1.00;99.90;;;;;;4954999;28;20376;-80
2021/12/26 12:37:24;;;;;;;;;;;-1.00;99.90;;;;;;4961295;28;20447;-80
2021/12/26 12:40:16;;;;;;;;;;;-1.00;99.90;;;;;;4955964;28;20017;-80
2021/12/26 12:42:59;;;;;;;;;;;-1.00;99.90;;;;;;4969754;28;20262;-80
2021/12/26 12:45:25;;;;;;;;;;;-1.00;99.90;;;;;;4956707;28;20496;-80
2021/12/26 12:48:11;;;;;;;;;;;-1.00;99.90;;;;;;4953249;28;19961;-80
2021/12/26 12:50:36;;;;;;;;;;;-0.90;99.90;;;;;;4973801;28;19918;-80
2021/12/26 12:53:02;;;;;;;;;;;-0.90;99.90;;;;;;4945266;29;20022;-80
2021/12/26 12:55:43;;;;;;;;;;;-1.00;99.90;;;;;;4941619;29;19926;-80
2021/12/26 12:58:23;;;;;;;;;;;-0.90;99.90;;;;;;4955257;28;19921;-80
2021/12/26 13:00:49;;;;;;;;;;;-0.90;99.90;;;;;;4962559;28;19926;-80
2021/12/26 13:03:16;;;;;;;;;;;-0.90;99.90;;;;;;4964570;28;19918;-80
2021/12/26 13:05:42;;;;;;;;;;;-0.90;99.90;;;;;;4977400;28;19932;-80
2021/12/26 13:08:09;;;;;;;;;;;-0.90;99.90;;;;;;4961532;28;19914;-80
2021/12/26 13:10:35;;;;;;;;;;;-0.90;99.90;;;;;;4967164;28;19914;-79
2021/12/26 13:13:09;;;;;;;;;;;-0.90;99.90;;;;;;4967354;28;19915;-79
2021/12/26 13:15:36;;;;;;;;;;;-1.00;99.90;;;;;;4962039;28;19918;-79
2021/12/26 13:18:07;;;;;;;;;;;-1.00;99.90;;;;;;4950478;28;20468;-79
2021/12/26 13:20:32;;;;;;;;;;;-1.00;99.90;;;;;;4964223;28;19921;-80
2021/12/26 13:23:04;;;;;;;;;;;-1.10;99.90;;;;;;4948464;29;20004;-79
2021/12/26 13:25:33;;;;;;;;;;;-1.10;99.90;;;;;;4940858;28;19918;-79
2021/12/26 13:27:59;;;;;;;;;;;-1.10;99.90;;;;;;4948077;28;20549;-79
2021/12/26 13:30:27;;;;;;;;;;;-1.10;99.90;;;;;;4962397;28;20016;-79
2021/12/26 13:32:53;;;;;;;;;;;-1.10;99.90;;;;;;4937310;29;19915;-79
2021/12/26 13:35:27;;;;;;;;;;;-1.10;99.90;;;;;;4968674;28;19996;-80
2021/12/26 13:37:55;;;;;;;;;;;-1.10;99.90;;;;;;4969461;28;19918;-79
2021/12/26 13:40:23;;;;;;;;;;;-1.10;99.90;;;;;;4952378;29;19914;-80
2021/12/26 13:42:49;;;;;;;;;;;-1.00;99.90;;;;;;4952474;28;20328;-80
2021/12/26 13:45:15;;;;;;;;;;;-1.00;99.90;;;;;;4945934;29;19973;-80
2021/12/26 13:47:41;;;;;;;;;;;-1.10;99.90;;;;;;4936221;29;20009;-80
2021/12/26 13:50:09;;;;;;;;;;;-1.10;99.90;;;;;;4952258;28;20025;-79
2021/12/26 13:52:35;;;;;;;;;;;-1.10;99.90;;;;;;4941267;29;19915;-79
2021/12/26 13:55:00;;;;;;;;;;;-1.10;99.90;;;;;;4932892;29;19919;-79
2021/12/26 13:57:26;;;;;;;;;;;-1.20;99.90;;;;;;4932687;28;20006;-80
2021/12/26 13:59:53;;;;;;;;;;;-1.10;99.90;;;;;;4946118;29;19934;-80
2021/12/26 14:02:26;;;;;;;;;;;-1.20;99.90;;;;;;4952694;28;19949;-79
2021/12/26 14:04:53;;;;;;;;;;;-1.20;99.90;;;;;;4965043;28;19919;-79
2021/12/26 14:07:19;;;;;;;;;;;-1.10;99.90;;;;;;4966240;28;20039;-79
2021/12/26 14:09:45;;;;;;;;;;;-1.10;99.90;;;;;;4965950;28;19953;-80
2021/12/26 14:12:30;;;;;;;;;;;-1.20;99.90;;;;;;4952178;29;19980;-79
2021/12/26 14:15:21;;;;;;;;;;;-1.10;99.90;;;;;;4944125;28;19922;-79
2021/12/26 14:18:04;;;;;;;;;;;-1.20;99.90;;;;;;4949891;28;19915;-79
2021/12/26 14:20:42;;;;;;;;;;;-1.20;99.90;;;;;;4950998;28;19993;-81
2021/12/26 14:23:40;;;;;;;;;;;-1.20;99.90;;;;;;4968361;28;19914;-80
2021/12/26 14:26:16;;;;;;;;;;;-1.30;99.90;;;;;;4950386;28;20017;-80
2021/12/26 14:28:47;;;;;;;;;;;-1.30;99.90;;;;;;4955709;28;19915;-79
2021/12/26 14:31:31;;;;;;;;;;;-1.30;99.90;;;;;;4975547;28;19919;-80
2021/12/26 14:33:57;;;;;;;;;;;-1.30;99.90;;;;;;4970711;28;19933;-80
2021/12/26 14:36:22;;;;;;;;;;;-1.30;99.90;;;;;;4955492;28;20021;-81
2021/12/26 14:38:56;;;;;;;;;;;-1.30;99.90;;;;;;4956293;28;20295;-80